createdAt,value
2018-04-12T00:00:33.344Z,33.73
2018-04-12T00:03:00.888Z,32.87
2018-04-12T00:05:28.483Z,32.40
2018-04-12T00:07:56.028Z,36.60
2018-04-12T00:10:23.594Z,35.53
2018-04-12T00:12:51.135Z,35.20
2018-04-12T00:15:18.702Z,34.10
2018-04-12T00:17:46.239Z,33.27
2018-04-12T00:20:13.991Z,30.20
2018-04-12T00:22:41.528Z,32.20
2018-04-12T00:25:09.930Z,34.57
2018-04-12T00:27:37.457Z,31.50
2018-04-12T00:30:05.061Z,31.40
2018-04-12T00:32:32.604Z,31.80
2018-04-12T00:35:00.952Z,34.97
2018-04-12T00:37:28.498Z,30.83
2018-04-12T00:39:56.063Z,28.70
2018-04-12T00:42:23.611Z,31.00
2018-04-12T00:44:51.183Z,30.87
2018-04-12T00:47:18.906Z,30.87
2018-04-12T00:49:46.483Z,31.63
2018-04-12T00:52:14.024Z,30.47
2018-04-12T00:54:41.592Z,32.47
2018-04-12T00:57:09.124Z,31.20
2018-04-12T00:59:36.709Z,32.67
2018-04-12T01:02:04.243Z,30.90
2018-04-12T01:04:31.812Z,29.80
2018-04-12T01:06:59.359Z,30.90
2018-04-12T01:09:27.065Z,31.20
2018-04-12T01:11:54.608Z,31.77
2018-04-12T01:14:22.179Z,29.87
2018-04-12T01:16:49.751Z,29.13
2018-04-12T01:19:17.348Z,29.70
2018-04-12T01:21:45.672Z,31.03
2018-04-12T01:24:13.201Z,29.77
2018-04-12T01:26:40.767Z,29.63
2018-04-12T01:29:08.311Z,28.93
2018-04-12T01:31:35.862Z,27.70
2018-04-12T01:34:04.167Z,28.43
2018-04-12T01:36:31.742Z,28.03
2018-04-12T01:38:59.388Z,28.03
2018-04-12T01:41:26.923Z,25.87
2018-04-12T01:43:55.260Z,24.00
2018-04-12T01:46:22.797Z,23.63
2018-04-12T01:48:50.372Z,23.93
2018-04-12T01:51:18.064Z,23.97
2018-04-12T01:53:45.638Z,25.70
2018-04-12T01:56:13.960Z,22.50
2018-04-12T01:58:41.527Z,22.27
2018-04-12T02:01:09.063Z,20.80
2018-04-12T02:03:36.623Z,19.73
2018-04-12T02:06:04.177Z,18.47
2018-04-12T02:08:31.741Z,18.20
2018-04-12T02:10:59.275Z,18.90
2018-04-12T02:13:27.602Z,22.50
2018-04-12T02:15:55.148Z,20.23
2018-04-12T02:18:22.708Z,18.87
2018-04-12T02:20:50.257Z,16.83
2018-04-12T02:23:17.967Z,17.60
2018-04-12T02:25:45.505Z,17.40
2018-04-12T02:28:13.077Z,16.80
2018-04-12T02:30:40.617Z,20.43
2018-04-12T02:33:08.388Z,16.37
2018-04-12T02:35:35.926Z,16.53
2018-04-12T02:38:03.467Z,17.20
2018-04-12T02:40:31.047Z,16.40
2018-04-12T02:42:58.768Z,18.00
2018-04-12T02:45:26.359Z,18.23
2018-04-12T02:47:53.902Z,16.60
2018-04-12T02:50:21.468Z,17.20
2018-04-12T02:52:49.785Z,16.40
2018-04-12T02:55:17.336Z,17.17
2018-04-12T02:57:44.899Z,15.30
2018-04-12T03:00:12.455Z,15.90
2018-04-12T03:02:40.008Z,16.77
2018-04-12T03:05:07.578Z,16.40
2018-04-12T03:07:35.159Z,14.93
2018-04-12T03:10:02.710Z,16.70
2018-04-12T03:12:30.284Z,16.30
2018-04-12T03:14:57.832Z,16.30
2018-04-12T03:17:25.408Z,14.97
2018-04-12T03:19:52.959Z,15.50
2018-04-12T03:22:20.521Z,15.80
2018-04-12T03:24:49.556Z,14.60
2018-04-12T03:27:17.247Z,15.17
2018-04-12T03:29:44.783Z,17.00
2018-04-12T03:32:12.344Z,16.93
2018-04-12T03:34:39.903Z,15.40
2018-04-12T03:37:07.474Z,16.40
2018-04-12T03:39:35.031Z,15.90
2018-04-12T03:42:02.597Z,18.93
2018-04-12T03:44:30.131Z,20.10
2018-04-12T03:46:57.697Z,19.60
2018-04-12T03:49:26.191Z,20.97
2018-04-12T03:51:53.738Z,19.63
2018-04-12T03:54:21.321Z,20.40
2018-04-12T03:56:48.911Z,19.60
2018-04-12T03:59:16.471Z,19.17
2018-04-12T04:01:44.293Z,18.10
2018-04-12T04:04:11.791Z,17.70
2018-04-12T04:06:39.392Z,18.43
2018-04-12T04:09:06.968Z,18.10
2018-04-12T04:11:34.511Z,17.80
2018-04-12T04:14:03.121Z,18.33
2018-04-12T04:16:42.476Z,19.20
2018-04-12T04:19:21.859Z,21.60
2018-04-12T04:21:50.155Z,21.13
2018-04-12T04:24:17.716Z,22.63
2018-04-12T04:26:45.255Z,21.40
2018-04-12T04:29:13.592Z,21.10
2018-04-12T04:31:41.329Z,24.83
2018-04-12T04:34:08.900Z,24.07
2018-04-12T04:36:36.435Z,25.30
2018-04-12T04:39:04.116Z,22.57
2018-04-12T04:41:32.488Z,23.87
2018-04-12T04:44:00.058Z,21.50
2018-04-12T04:46:27.603Z,22.47
2018-04-12T04:48:55.180Z,21.33
2018-04-12T04:51:22.725Z,22.50
2018-04-12T04:53:50.293Z,31.80
2018-04-12T04:56:17.882Z,29.30
2018-04-12T04:58:45.428Z,25.57
2018-04-12T05:01:13.132Z,28.67
2018-04-12T05:03:41.443Z,24.53
2018-04-12T05:06:09.151Z,28.80
2018-04-12T05:08:36.701Z,36.67
2018-04-12T05:11:04.292Z,28.67
2018-04-12T05:13:31.851Z,22.47
2018-04-12T05:16:00.166Z,20.97
2018-04-12T05:18:27.708Z,21.77
2018-04-12T05:20:55.285Z,20.17
2018-04-12T05:23:22.844Z,20.53
2018-04-12T05:25:50.370Z,21.10
2018-04-12T05:28:18.694Z,23.90
2018-04-12T05:30:46.235Z,22.43
2018-04-12T05:33:13.889Z,23.80
2018-04-12T05:35:41.484Z,20.37
2018-04-12T05:38:09.059Z,22.80
2018-04-12T05:40:36.611Z,19.70
2018-04-12T05:43:04.167Z,19.97
2018-04-12T05:45:31.715Z,20.27
2018-04-12T05:47:59.282Z,20.13
2018-04-12T05:50:26.827Z,19.00
2018-04-12T05:52:54.462Z,18.13
2018-04-12T05:55:21.996Z,14.83
2018-04-12T05:57:49.536Z,15.60
2018-04-12T06:00:17.101Z,15.73
2018-04-12T06:02:46.148Z,16.57
2018-04-12T06:05:13.690Z,14.73
2018-04-12T06:07:41.248Z,14.60
2018-04-12T06:10:08.819Z,15.40
2018-04-12T06:12:36.347Z,12.50
2018-04-12T06:15:04.735Z,12.97
2018-04-12T06:17:32.268Z,13.00
2018-04-12T06:19:59.843Z,11.13
2018-04-12T06:22:27.397Z,12.60
2018-04-12T06:24:55.003Z,10.33
2018-04-12T06:27:22.585Z,12.80
2018-04-12T06:29:50.156Z,10.63
2018-04-12T06:32:18.603Z,10.10
2018-04-12T06:34:46.171Z,9.63
2018-04-12T06:37:13.732Z,8.87
2018-04-12T06:39:41.381Z,7.93
2018-04-12T06:42:08.924Z,8.27
2018-04-12T06:44:38.276Z,9.47
2018-04-12T06:47:05.808Z,7.97
2018-04-12T06:49:33.387Z,8.70
2018-04-12T06:52:00.931Z,8.60
2018-04-12T06:54:28.511Z,8.43
2018-04-12T06:56:56.064Z,6.50
2018-04-12T06:59:23.663Z,6.87
2018-04-12T07:01:51.205Z,7.33
2018-04-12T07:04:18.777Z,7.50
2018-04-12T07:06:46.343Z,7.50
2018-04-12T07:09:14.821Z,7.80
2018-04-12T07:11:43.219Z,8.00
2018-04-12T07:14:10.763Z,8.00
2018-04-12T07:16:39.083Z,8.60
2018-04-12T07:19:06.648Z,8.57
2018-04-12T07:21:34.211Z,7.50
2018-04-12T07:24:01.772Z,7.70
2018-04-12T07:26:29.331Z,7.40
2018-04-12T07:28:56.884Z,8.07
2018-04-12T07:31:24.429Z,6.43
2018-04-12T07:33:51.991Z,6.30
2018-04-12T07:36:19.516Z,5.83
2018-04-12T07:38:47.874Z,5.90
2018-04-12T07:41:15.432Z,5.67
2018-04-12T07:43:44.152Z,4.63
2018-04-12T07:46:12.451Z,4.70
2018-04-12T07:48:40.042Z,6.77
2018-04-12T07:51:07.621Z,5.10
2018-04-12T07:53:35.179Z,4.30
2018-04-12T07:56:02.716Z,3.90
2018-04-12T07:58:30.315Z,4.23
2018-04-12T08:00:58.631Z,5.23
2018-04-12T08:03:26.195Z,4.77
2018-04-12T08:05:53.763Z,4.10
2018-04-12T08:08:21.364Z,4.93
2018-04-12T08:10:49.677Z,4.80
2018-04-12T08:13:17.249Z,5.10
2018-04-12T08:15:45.657Z,3.97
2018-04-12T08:18:13.511Z,4.50
2018-04-12T08:20:41.158Z,4.27
2018-04-12T08:23:08.792Z,4.43
2018-04-12T08:25:36.335Z,4.37
2018-04-12T08:28:04.033Z,4.10
2018-04-12T08:30:31.674Z,4.17
2018-04-12T08:32:59.262Z,3.93
2018-04-12T08:35:26.822Z,4.40
2018-04-12T08:37:54.367Z,4.83
2018-04-12T08:40:22.074Z,4.80
2018-04-12T08:42:49.637Z,4.50
2018-04-12T08:45:17.181Z,4.33
2018-04-12T08:47:44.813Z,5.13
2018-04-12T08:50:12.379Z,4.33
2018-04-12T08:52:39.914Z,4.27
2018-04-12T08:55:08.273Z,5.80
2018-04-12T08:57:35.845Z,5.60
2018-04-12T09:00:03.442Z,4.70
2018-04-12T09:02:31.008Z,4.50
2018-04-12T09:04:58.599Z,4.40
2018-04-12T09:07:26.200Z,5.60
2018-04-12T09:09:53.861Z,5.17
2018-04-12T09:12:21.642Z,5.60
2018-04-12T09:14:49.408Z,5.40
2018-04-12T09:17:17.053Z,4.90
2018-04-12T09:19:44.737Z,6.17
2018-04-12T09:22:12.316Z,4.70
2018-04-12T09:24:39.895Z,4.80
2018-04-12T09:27:07.468Z,5.20
2018-04-12T09:29:35.035Z,5.17
2018-04-12T09:32:03.351Z,4.50
2018-04-12T09:34:32.072Z,4.83
2018-04-12T09:36:59.706Z,5.43
2018-04-12T09:39:27.307Z,5.00
2018-04-12T09:41:54.866Z,4.60
2018-04-12T09:44:22.463Z,4.57
2018-04-12T09:46:50.019Z,5.03
2018-04-12T09:49:17.676Z,5.53
2018-04-12T09:51:45.208Z,5.40
2018-04-12T09:54:12.761Z,5.60
2018-04-12T09:56:40.410Z,4.80
2018-04-12T09:59:08.909Z,4.80
2018-04-12T10:01:42.187Z,4.97
2018-04-12T10:04:15.301Z,5.90
2018-04-12T10:06:43.655Z,5.70
2018-04-12T10:09:14.616Z,5.63
2018-04-12T10:11:43.017Z,5.50
2018-04-12T10:14:10.591Z,5.30
2018-04-12T10:16:38.181Z,5.10
2018-04-12T10:19:05.740Z,5.33
2018-04-12T10:21:33.264Z,4.97
2018-04-12T10:24:00.867Z,4.73
2018-04-12T10:26:28.410Z,5.00
2018-04-12T10:28:56.153Z,5.50
2018-04-12T10:31:23.763Z,5.00
2018-04-12T10:33:52.592Z,4.70
2018-04-12T10:36:20.160Z,5.40
2018-04-12T10:38:47.857Z,5.00
2018-04-12T10:41:15.454Z,5.60
2018-04-12T10:43:43.145Z,4.97
2018-04-12T10:46:10.732Z,5.10
2018-04-12T10:48:38.355Z,5.80
2018-04-12T10:51:05.966Z,5.60
2018-04-12T10:53:33.514Z,4.77
2018-04-12T10:56:01.074Z,5.63
2018-04-12T10:58:28.630Z,5.40
2018-04-12T11:00:56.202Z,4.40
2018-04-12T11:03:23.845Z,4.40
2018-04-12T11:05:51.403Z,5.20
2018-04-12T11:08:18.964Z,5.23
2018-04-12T11:10:46.523Z,4.90
2018-04-12T11:13:14.060Z,4.90
2018-04-12T11:15:41.646Z,4.67
2018-04-12T11:18:09.362Z,4.43
2018-04-12T11:20:36.926Z,5.13
2018-04-12T11:23:05.246Z,4.80
2018-04-12T11:25:32.830Z,4.70
2018-04-12T11:28:00.393Z,5.40
2018-04-12T11:30:27.997Z,6.20
2018-04-12T11:32:55.547Z,4.27
2018-04-12T11:35:23.142Z,4.83
2018-04-12T11:37:50.664Z,4.47
2018-04-12T11:40:18.247Z,5.97
2018-04-12T11:42:45.777Z,4.43
2018-04-12T11:45:13.363Z,5.33
2018-04-12T11:47:41.016Z,4.70
2018-04-12T11:50:09.277Z,4.80
2018-04-12T11:52:37.783Z,4.40
2018-04-12T11:55:05.350Z,4.10
2018-04-12T11:57:32.885Z,5.00
2018-04-12T12:00:01.464Z,5.10
2018-04-12T12:02:29.016Z,4.40
2018-04-12T12:04:57.367Z,4.77
2018-04-12T12:07:24.919Z,4.90
2018-04-12T12:09:52.533Z,5.30
2018-04-12T12:12:20.081Z,4.60
2018-04-12T12:14:47.789Z,5.00
2018-04-12T12:17:15.449Z,4.20
2018-04-12T12:19:43.124Z,5.30
2018-04-12T12:22:10.678Z,5.10
2018-04-12T12:24:38.275Z,4.80
2018-04-12T12:27:05.913Z,4.73
2018-04-12T12:29:33.504Z,5.40
2018-04-12T12:32:01.967Z,4.60
2018-04-12T12:34:30.334Z,5.23
2018-04-12T12:37:09.801Z,4.83
2018-04-12T12:39:43.291Z,6.20
2018-04-12T12:42:10.828Z,5.10
2018-04-12T12:44:38.409Z,6.03
2018-04-12T12:47:06.004Z,4.80
2018-04-12T12:49:33.662Z,4.93
2018-04-12T12:52:01.274Z,5.37
2018-04-12T12:54:28.864Z,5.27
2018-04-12T12:56:56.449Z,4.90
2018-04-12T12:59:24.036Z,4.67
2018-04-12T13:01:51.591Z,6.40
2018-04-12T13:04:19.158Z,4.57
2018-04-12T13:06:46.707Z,4.80
2018-04-12T13:09:14.277Z,4.90
2018-04-12T13:11:47.783Z,5.70
2018-04-12T13:14:15.355Z,5.07
2018-04-12T13:16:48.791Z,5.43
2018-04-12T13:19:16.618Z,4.63
2018-04-12T13:21:44.244Z,5.30
2018-04-12T13:24:17.432Z,5.10
2018-04-12T13:26:44.964Z,4.30
2018-04-12T13:29:14.618Z,4.53
2018-04-12T13:31:47.822Z,3.97
2018-04-12T13:34:22.108Z,4.53
2018-04-12T13:36:55.628Z,5.00
2018-04-12T13:39:34.824Z,4.90
2018-04-12T13:42:08.959Z,5.33
2018-04-12T13:44:37.875Z,4.90
2018-04-12T13:47:05.461Z,3.93
2018-04-12T13:49:38.784Z,4.87
2018-04-12T13:52:11.930Z,3.97
2018-04-12T13:54:39.586Z,5.30
2018-04-12T13:57:07.344Z,4.10
2018-04-12T13:59:34.884Z,5.87
2018-04-12T14:02:02.460Z,5.07
2018-04-12T14:04:30.058Z,5.47
2018-04-12T14:07:01.492Z,4.30
2018-04-12T14:09:29.803Z,5.10
2018-04-12T14:11:57.378Z,5.83
2018-04-12T14:14:24.918Z,5.03
2018-04-12T14:16:52.494Z,5.30
2018-04-12T14:19:25.824Z,4.10
2018-04-12T14:21:59.328Z,4.03
2018-04-12T14:24:26.886Z,4.40
2018-04-12T14:26:54.487Z,4.83
2018-04-12T14:29:22.057Z,4.20
2018-04-12T14:31:49.819Z,4.70
2018-04-12T14:34:17.377Z,3.53
2018-04-12T14:36:44.937Z,4.77
2018-04-12T14:39:12.551Z,5.40
2018-04-12T14:41:40.113Z,3.70
2018-04-12T14:44:07.942Z,4.40
2018-04-12T14:46:41.498Z,4.90
2018-04-12T14:49:15.029Z,4.50
2018-04-12T14:51:48.549Z,6.10
2018-04-12T14:54:21.944Z,5.00
2018-04-12T14:56:49.600Z,4.80
2018-04-12T14:59:17.135Z,6.77
2018-04-12T15:01:46.024Z,5.90
2018-04-12T15:04:15.601Z,4.87
2018-04-12T15:06:43.203Z,5.40
2018-04-12T15:09:10.743Z,4.30
2018-04-12T15:11:44.003Z,4.40
2018-04-12T15:14:11.525Z,5.60
2018-04-12T15:16:39.441Z,5.33
2018-04-12T15:19:12.622Z,4.30
2018-04-12T15:21:40.247Z,4.20
2018-04-12T15:24:07.790Z,4.47
2018-04-12T15:26:35.379Z,4.10
2018-04-12T15:29:02.920Z,4.30
2018-04-12T15:31:30.491Z,4.67
2018-04-12T15:34:04.103Z,5.13
2018-04-12T15:36:31.720Z,4.03
2018-04-12T15:38:59.386Z,3.70
2018-04-12T15:41:32.936Z,4.57
2018-04-12T15:44:06.849Z,4.27
2018-04-12T15:46:36.797Z,4.40
2018-04-12T15:49:04.418Z,3.73
2018-04-12T15:51:32.075Z,4.00
2018-04-12T15:53:59.622Z,4.20
2018-04-12T15:56:32.978Z,3.93
2018-04-12T15:59:00.542Z,4.33
2018-04-12T16:01:40.896Z,3.93
2018-04-12T16:04:15.121Z,4.70
2018-04-12T16:06:43.469Z,4.43
2018-04-12T16:09:16.860Z,3.73
2018-04-12T16:11:44.515Z,4.17
2018-04-12T16:14:12.285Z,4.27
2018-04-12T16:16:46.435Z,3.93
2018-04-12T16:19:14.044Z,3.30
2018-04-12T16:21:41.663Z,4.47
2018-04-12T16:24:09.251Z,3.43
2018-04-12T16:26:39.704Z,4.90
2018-04-12T16:29:07.349Z,5.40
2018-04-12T16:31:34.992Z,4.80
2018-04-12T16:34:08.740Z,3.83
2018-04-12T16:36:43.266Z,6.50
2018-04-12T16:39:11.168Z,4.30
2018-04-12T16:41:44.653Z,4.90
2018-04-12T16:44:20.196Z,4.70
2018-04-12T16:46:47.949Z,3.97
2018-04-12T16:49:15.517Z,4.60
2018-04-12T16:51:44.406Z,4.30
2018-04-12T16:54:23.744Z,4.90
2018-04-12T16:56:57.299Z,4.37
2018-04-12T16:59:24.865Z,4.40
2018-04-12T17:01:52.443Z,4.23
2018-04-12T17:04:19.988Z,4.30
2018-04-12T17:06:48.875Z,4.90
2018-04-12T17:09:16.424Z,4.53
2018-04-12T17:11:49.873Z,4.47
2018-04-12T17:14:23.169Z,4.70
2018-04-12T17:16:58.608Z,5.60
2018-04-12T17:19:27.017Z,4.63
2018-04-12T17:22:00.266Z,5.53
2018-04-12T17:24:28.730Z,4.67
2018-04-12T17:27:01.980Z,5.17
2018-04-12T17:29:32.634Z,4.70
2018-04-12T17:32:05.751Z,5.10
2018-04-12T17:34:35.457Z,4.73
2018-04-12T17:37:03.145Z,6.20
2018-04-12T17:39:32.230Z,5.80
2018-04-12T17:42:00.260Z,5.20
2018-04-12T17:44:39.919Z,5.20
2018-04-12T17:47:13.578Z,5.17
2018-04-12T17:49:46.868Z,4.83
2018-04-12T17:52:14.572Z,5.80
2018-04-12T17:54:42.978Z,5.83
2018-04-12T17:57:10.734Z,5.00
2018-04-12T17:59:45.330Z,5.13
2018-04-12T18:02:13.805Z,4.63
2018-04-12T18:04:47.329Z,5.07
2018-04-12T18:07:20.429Z,5.50
2018-04-12T18:09:53.924Z,5.50
2018-04-12T18:12:21.469Z,6.80
2018-04-12T18:14:57.388Z,6.43
2018-04-12T18:17:30.707Z,6.40
2018-04-12T18:20:04.395Z,6.13
2018-04-12T18:22:32.024Z,4.77
2018-04-12T18:24:59.643Z,4.67
2018-04-12T18:27:27.311Z,6.10
2018-04-12T18:30:06.778Z,5.50
2018-04-12T18:32:40.209Z,5.03
2018-04-12T18:35:13.582Z,5.20
2018-04-12T18:37:47.142Z,6.33
2018-04-12T18:40:14.729Z,6.00
2018-04-12T18:42:42.314Z,4.90
2018-04-12T18:45:09.988Z,7.23
2018-04-12T18:47:37.572Z,5.90
2018-04-12T18:50:10.743Z,6.53
2018-04-12T18:52:38.324Z,6.67
2018-04-12T18:55:05.918Z,7.10
2018-04-12T18:57:40.877Z,7.40
2018-04-12T19:00:09.176Z,8.07
2018-04-12T19:02:36.769Z,5.63
2018-04-12T19:05:10.223Z,8.03
2018-04-12T19:07:37.866Z,7.20
2018-04-12T19:10:06.367Z,9.03
2018-04-12T19:12:33.910Z,8.43
2018-04-12T19:15:07.139Z,7.53
2018-04-12T19:17:40.593Z,6.83
2018-04-12T19:20:09.015Z,7.03
2018-04-12T19:22:37.933Z,8.40
2018-04-12T19:25:05.702Z,7.60
2018-04-12T19:27:39.466Z,6.43
2018-04-12T19:30:07.809Z,7.30
2018-04-12T19:32:36.142Z,5.90
2018-04-12T19:35:03.748Z,7.30
2018-04-12T19:37:31.501Z,6.70
2018-04-12T19:40:11.430Z,6.40
2018-04-12T19:42:44.716Z,7.07
2018-04-12T19:45:18.067Z,9.10
2018-04-12T19:47:46.411Z,8.70
2018-04-12T19:50:19.725Z,9.83
2018-04-12T19:52:47.307Z,9.40
2018-04-12T19:55:20.728Z,9.73
2018-04-12T19:57:48.468Z,10.43
2018-04-12T20:00:27.677Z,9.90
2018-04-12T20:02:55.255Z,10.50
2018-04-12T20:05:23.718Z,10.40
2018-04-12T20:07:52.277Z,8.60
2018-04-12T20:10:19.834Z,8.87
2018-04-12T20:12:47.419Z,9.03
2018-04-12T20:15:21.381Z,7.07
2018-04-12T20:17:48.985Z,7.40
2018-04-12T20:20:22.311Z,7.67
2018-04-12T20:22:55.850Z,7.30
2018-04-12T20:25:29.314Z,8.00
2018-04-12T20:28:02.521Z,7.60
2018-04-12T20:30:30.036Z,7.00
2018-04-12T20:32:58.381Z,6.10
2018-04-12T20:35:25.922Z,7.57
2018-04-12T20:37:53.500Z,5.40
2018-04-12T20:40:21.059Z,7.10
2018-04-12T20:42:55.701Z,6.03
2018-04-12T20:45:29.045Z,7.70
2018-04-12T20:48:02.519Z,6.17
2018-04-12T20:50:30.851Z,6.20
2018-04-12T20:52:58.440Z,5.40
2018-04-12T20:55:25.999Z,5.90
2018-04-12T20:57:53.805Z,7.07
2018-04-12T21:00:34.226Z,6.80
2018-04-12T21:03:07.715Z,5.30
2018-04-12T21:05:35.316Z,6.03
2018-04-12T21:08:08.763Z,5.30
2018-04-12T21:10:36.251Z,6.63
2018-04-12T21:13:10.293Z,6.10
2018-04-12T21:15:37.831Z,5.83
2018-04-12T21:18:06.751Z,7.13
2018-04-12T21:20:34.280Z,6.37
2018-04-12T21:23:02.602Z,5.57
2018-04-12T21:25:30.147Z,5.70
2018-04-12T21:27:59.108Z,6.23
2018-04-12T21:30:27.417Z,6.03
2018-04-12T21:33:06.558Z,5.23
2018-04-12T21:35:34.116Z,8.77
2018-04-12T21:38:01.658Z,9.47
2018-04-12T21:40:36.427Z,5.83
2018-04-12T21:43:09.581Z,35.67
2018-04-12T21:45:42.986Z,6.40
2018-04-12T21:48:10.597Z,6.37
2018-04-12T21:50:38.135Z,5.23
2018-04-12T21:53:05.717Z,5.73
2018-04-12T21:55:34.795Z,6.23
2018-04-12T21:58:02.405Z,5.80
2018-04-12T22:00:30.133Z,7.50
2018-04-12T22:02:57.669Z,8.03
2018-04-12T22:05:25.255Z,6.17
2018-04-12T22:07:53.118Z,5.93
2018-04-12T22:10:28.887Z,5.83
2018-04-12T22:12:57.478Z,5.37
2018-04-12T22:15:26.416Z,6.30
2018-04-12T22:18:05.513Z,7.50
2018-04-12T22:20:33.255Z,5.10
2018-04-12T22:23:01.573Z,6.27
2018-04-12T22:25:34.849Z,6.03
2018-04-12T22:28:02.428Z,6.20
2018-04-12T22:30:29.969Z,4.53
2018-04-12T22:32:57.676Z,6.30
2018-04-12T22:35:25.231Z,5.50
2018-04-12T22:37:58.452Z,6.50
2018-04-12T22:40:26.187Z,6.10
2018-04-12T22:43:05.341Z,5.50
2018-04-12T22:45:33.166Z,5.60
2018-04-12T22:48:06.671Z,4.87
2018-04-12T22:50:34.250Z,5.40
2018-04-12T22:53:07.307Z,5.93
2018-04-12T22:55:40.423Z,5.57
2018-04-12T22:58:07.982Z,4.83
2018-04-12T23:00:36.968Z,5.10
2018-04-12T23:03:10.178Z,5.27
2018-04-12T23:05:37.839Z,5.90
2018-04-12T23:08:05.589Z,4.70
2018-04-12T23:10:33.131Z,5.10
2018-04-12T23:13:07.544Z,5.50
2018-04-12T23:15:35.089Z,5.53
2018-04-12T23:18:02.663Z,5.40
2018-04-12T23:20:30.224Z,6.00
2018-04-12T23:22:58.015Z,5.53
2018-04-12T23:25:25.592Z,6.70
2018-04-12T23:28:05.212Z,5.77
2018-04-12T23:30:32.755Z,6.43
2018-04-12T23:33:00.292Z,4.70
2018-04-12T23:35:29.215Z,4.60
2018-04-12T23:38:02.684Z,5.67
2018-04-12T23:40:35.992Z,5.17
2018-04-12T23:43:03.546Z,5.70
2018-04-12T23:45:37.283Z,5.87
2018-04-12T23:48:04.847Z,5.77
2018-04-12T23:50:32.388Z,5.37
2018-04-12T23:52:59.927Z,4.67
2018-04-12T23:55:33.154Z,6.00
2018-04-12T23:58:00.808Z,5.50
